sensor_id;sensor_type;location;lat;lon;timestamp;P1;durP1;ratioP1;P2;durP2;ratioP2
53285;SDS011;39171;45.550;12.074;2023-06-14T00:03:27;2.63;;;2.13;;
53285;SDS011;39171;45.550;12.074;2023-06-14T00:09:28;2.78;;;2.30;;
53285;SDS011;39171;45.550;12.074;2023-06-14T00:15:33;3.15;;;2.65;;
53285;SDS011;39171;45.550;12.074;2023-06-14T00:21:35;2.88;;;2.58;;
53285;SDS011;39171;45.550;12.074;2023-06-14T00:27:37;3.47;;;2.63;;
53285;SDS011;39171;45.550;12.074;2023-06-14T00:33:38;3.10;;;2.58;;
53285;SDS011;39171;45.550;12.074;2023-06-14T00:39:40;2.90;;;2.47;;
53285;SDS011;39171;45.550;12.074;2023-06-14T00:45:41;2.97;;;2.50;;
53285;SDS011;39171;45.550;12.074;2023-06-14T00:51:45;3.05;;;2.38;;
53285;SDS011;39171;45.550;12.074;2023-06-14T00:57:47;3.17;;;2.65;;
53285;SDS011;39171;45.550;12.074;2023-06-14T01:03:50;3.20;;;2.55;;
53285;SDS011;39171;45.550;12.074;2023-06-14T01:16:21;4.00;;;2.60;;
53285;SDS011;39171;45.550;12.074;2023-06-14T01:22:24;3.33;;;2.65;;
53285;SDS011;39171;45.550;12.074;2023-06-14T01:28:29;3.05;;;2.67;;
53285;SDS011;39171;45.550;12.074;2023-06-14T01:34:34;2.78;;;2.47;;
53285;SDS011;39171;45.550;12.074;2023-06-14T01:40:35;2.92;;;2.60;;
53285;SDS011;39171;45.550;12.074;2023-06-14T01:46:37;3.17;;;2.70;;
53285;SDS011;39171;45.550;12.074;2023-06-14T01:52:39;3.13;;;2.60;;
53285;SDS011;39171;45.550;12.074;2023-06-14T01:58:41;2.83;;;2.55;;
53285;SDS011;39171;45.550;12.074;2023-06-14T02:04:42;3.50;;;2.70;;
53285;SDS011;39171;45.550;12.074;2023-06-14T02:10:43;3.50;;;3.20;;
53285;SDS011;39171;45.550;12.074;2023-06-14T02:16:45;3.42;;;3.03;;
53285;SDS011;39171;45.550;12.074;2023-06-14T02:22:49;3.60;;;3.00;;
53285;SDS011;39171;45.550;12.074;2023-06-14T02:28:50;3.90;;;3.08;;
53285;SDS011;39171;45.550;12.074;2023-06-14T02:34:52;3.67;;;3.20;;
53285;SDS011;39171;45.550;12.074;2023-06-14T02:40:54;3.53;;;2.88;;
53285;SDS011;39171;45.550;12.074;2023-06-14T02:46:55;3.08;;;2.78;;
53285;SDS011;39171;45.550;12.074;2023-06-14T02:52:57;3.20;;;2.90;;
53285;SDS011;39171;45.550;12.074;2023-06-14T02:58:59;3.50;;;2.95;;
53285;SDS011;39171;45.550;12.074;2023-06-14T03:05:01;3.47;;;3.03;;
53285;SDS011;39171;45.550;12.074;2023-06-14T03:11:05;3.13;;;2.55;;
53285;SDS011;39171;45.550;12.074;2023-06-14T03:17:07;3.47;;;3.13;;
53285;SDS011;39171;45.550;12.074;2023-06-14T03:23:13;3.10;;;2.78;;
53285;SDS011;39171;45.550;12.074;2023-06-14T03:29:15;2.78;;;2.50;;
53285;SDS011;39171;45.550;12.074;2023-06-14T03:35:17;2.63;;;2.28;;
53285;SDS011;39171;45.550;12.074;2023-06-14T03:41:21;3.20;;;2.90;;
53285;SDS011;39171;45.550;12.074;2023-06-14T03:47:24;3.70;;;3.30;;
53285;SDS011;39171;45.550;12.074;2023-06-14T03:53:27;3.45;;;3.13;;
53285;SDS011;39171;45.550;12.074;2023-06-14T03:59:30;2.95;;;2.58;;
53285;SDS011;39171;45.550;12.074;2023-06-14T04:05:33;3.05;;;2.75;;
53285;SDS011;39171;45.550;12.074;2023-06-14T04:11:35;3.65;;;3.13;;
53285;SDS011;39171;45.550;12.074;2023-06-14T04:17:37;3.20;;;2.90;;
53285;SDS011;39171;45.550;12.074;2023-06-14T04:23:40;3.88;;;2.97;;
53285;SDS011;39171;45.550;12.074;2023-06-14T04:29:45;3.30;;;2.90;;
53285;SDS011;39171;45.550;12.074;2023-06-14T04:35:54;3.20;;;2.90;;
53285;SDS011;39171;45.550;12.074;2023-06-14T04:41:57;3.38;;;2.92;;
53285;SDS011;39171;45.550;12.074;2023-06-14T04:48:02;3.15;;;2.85;;
53285;SDS011;39171;45.550;12.074;2023-06-14T04:54:04;3.28;;;2.95;;
53285;SDS011;39171;45.550;12.074;2023-06-14T05:00:06;3.25;;;2.75;;
53285;SDS011;39171;45.550;12.074;2023-06-14T05:06:09;2.80;;;2.60;;
53285;SDS011;39171;45.550;12.074;2023-06-14T05:12:10;3.00;;;2.70;;
53285;SDS011;39171;45.550;12.074;2023-06-14T05:18:12;2.90;;;2.60;;
53285;SDS011;39171;45.550;12.074;2023-06-14T05:24:14;2.72;;;2.50;;
53285;SDS011;39171;45.550;12.074;2023-06-14T05:30:15;2.70;;;2.40;;
53285;SDS011;39171;45.550;12.074;2023-06-14T05:36:17;2.45;;;2.25;;
53285;SDS011;39171;45.550;12.074;2023-06-14T05:42:19;2.80;;;2.20;;
53285;SDS011;39171;45.550;12.074;2023-06-14T05:48:20;2.60;;;2.40;;
53285;SDS011;39171;45.550;12.074;2023-06-14T05:54:22;2.40;;;2.10;;
53285;SDS011;39171;45.550;12.074;2023-06-14T06:00:23;2.33;;;2.08;;
53285;SDS011;39171;45.550;12.074;2023-06-14T06:06:24;2.33;;;2.03;;
53285;SDS011;39171;45.550;12.074;2023-06-14T06:12:26;2.97;;;1.90;;
53285;SDS011;39171;45.550;12.074;2023-06-14T06:18:27;2.10;;;1.90;;
53285;SDS011;39171;45.550;12.074;2023-06-14T06:24:29;2.03;;;1.70;;
53285;SDS011;39171;45.550;12.074;2023-06-14T06:30:30;2.20;;;1.73;;
53285;SDS011;39171;45.550;12.074;2023-06-14T06:36:31;2.28;;;1.85;;
53285;SDS011;39171;45.550;12.074;2023-06-14T06:42:33;2.08;;;1.67;;
53285;SDS011;39171;45.550;12.074;2023-06-14T06:48:37;2.28;;;1.90;;
53285;SDS011;39171;45.550;12.074;2023-06-14T06:54:39;2.05;;;1.63;;
53285;SDS011;39171;45.550;12.074;2023-06-14T07:00:40;2.17;;;1.83;;
53285;SDS011;39171;45.550;12.074;2023-06-14T07:06:42;2.00;;;1.63;;
53285;SDS011;39171;45.550;12.074;2023-06-14T07:12:44;2.47;;;1.92;;
53285;SDS011;39171;45.550;12.074;2023-06-14T07:18:45;2.28;;;1.70;;
53285;SDS011;39171;45.550;12.074;2023-06-14T07:24:47;2.05;;;1.77;;
53285;SDS011;39171;45.550;12.074;2023-06-14T07:30:48;2.33;;;1.83;;
53285;SDS011;39171;45.550;12.074;2023-06-14T07:36:50;1.90;;;1.67;;
53285;SDS011;39171;45.550;12.074;2023-06-14T07:42:52;3.38;;;2.15;;
53285;SDS011;39171;45.550;12.074;2023-06-14T07:48:54;3.15;;;1.98;;
53285;SDS011;39171;45.550;12.074;2023-06-14T07:54:56;2.30;;;1.70;;
53285;SDS011;39171;45.550;12.074;2023-06-14T08:00:57;2.67;;;1.98;;
53285;SDS011;39171;45.550;12.074;2023-06-14T08:07:00;2.63;;;2.00;;
53285;SDS011;39171;45.550;12.074;2023-06-14T08:13:01;2.10;;;1.75;;
53285;SDS011;39171;45.550;12.074;2023-06-14T08:19:03;2.50;;;2.00;;
53285;SDS011;39171;45.550;12.074;2023-06-14T08:25:04;1.90;;;1.50;;
53285;SDS011;39171;45.550;12.074;2023-06-14T08:31:08;2.35;;;1.63;;
53285;SDS011;39171;45.550;12.074;2023-06-14T08:37:10;1.83;;;1.60;;
53285;SDS011;39171;45.550;12.074;2023-06-14T08:43:11;2.30;;;1.80;;
53285;SDS011;39171;45.550;12.074;2023-06-14T08:49:12;2.88;;;1.95;;
53285;SDS011;39171;45.550;12.074;2023-06-14T08:55:17;2.63;;;1.80;;
53285;SDS011;39171;45.550;12.074;2023-06-14T09:01:18;2.38;;;1.90;;
53285;SDS011;39171;45.550;12.074;2023-06-14T09:07:22;2.40;;;1.85;;
53285;SDS011;39171;45.550;12.074;2023-06-14T09:13:23;2.40;;;1.90;;
53285;SDS011;39171;45.550;12.074;2023-06-14T09:19:25;1.85;;;1.52;;
53285;SDS011;39171;45.550;12.074;2023-06-14T09:25:27;2.13;;;1.63;;
53285;SDS011;39171;45.550;12.074;2023-06-14T09:31:28;2.28;;;1.60;;
53285;SDS011;39171;45.550;12.074;2023-06-14T09:37:32;2.63;;;1.80;;
53285;SDS011;39171;45.550;12.074;2023-06-14T09:43:34;2.40;;;1.80;;
53285;SDS011;39171;45.550;12.074;2023-06-14T09:49:36;2.47;;;2.00;;
53285;SDS011;39171;45.550;12.074;2023-06-14T09:55:37;3.42;;;2.50;;
53285;SDS011;39171;45.550;12.074;2023-06-14T10:01:42;2.72;;;2.30;;
53285;SDS011;39171;45.550;12.074;2023-06-14T10:07:55;2.58;;;2.00;;
53285;SDS011;39171;45.550;12.074;2023-06-14T10:14:00;3.50;;;2.55;;
53285;SDS011;39171;45.550;12.074;2023-06-14T10:20:40;3.20;;;2.47;;
53285;SDS011;39171;45.550;12.074;2023-06-14T10:26:52;3.05;;;2.42;;
53285;SDS011;39171;45.550;12.074;2023-06-14T10:33:03;3.10;;;2.28;;
53285;SDS011;39171;45.550;12.074;2023-06-14T10:45:20;3.25;;;2.42;;
53285;SDS011;39171;45.550;12.074;2023-06-14T10:51:21;3.13;;;2.28;;
53285;SDS011;39171;45.550;12.074;2023-06-14T10:57:23;3.80;;;2.80;;
53285;SDS011;39171;45.550;12.074;2023-06-14T11:03:50;3.00;;;2.55;;
53285;SDS011;39171;45.550;12.074;2023-06-14T11:10:08;4.78;;;2.80;;
53285;SDS011;39171;45.550;12.074;2023-06-14T11:16:15;3.38;;;2.85;;
53285;SDS011;39171;45.550;12.074;2023-06-14T11:22:17;3.10;;;2.40;;
53285;SDS011;39171;45.550;12.074;2023-06-14T11:28:18;2.90;;;2.33;;
53285;SDS011;39171;45.550;12.074;2023-06-14T11:34:24;3.75;;;2.72;;
53285;SDS011;39171;45.550;12.074;2023-06-14T11:40:26;3.88;;;2.53;;
53285;SDS011;39171;45.550;12.074;2023-06-14T11:46:28;3.53;;;2.78;;
53285;SDS011;39171;45.550;12.074;2023-06-14T11:52:30;3.17;;;2.53;;
53285;SDS011;39171;45.550;12.074;2023-06-14T11:58:32;3.83;;;3.13;;
53285;SDS011;39171;45.550;12.074;2023-06-14T12:04:34;3.83;;;2.65;;
53285;SDS011;39171;45.550;12.074;2023-06-14T12:10:41;3.20;;;2.63;;
53285;SDS011;39171;45.550;12.074;2023-06-14T12:16:44;3.65;;;2.88;;
53285;SDS011;39171;45.550;12.074;2023-06-14T12:22:55;3.50;;;2.85;;
53285;SDS011;39171;45.550;12.074;2023-06-14T12:28:59;4.80;;;3.72;;
53285;SDS011;39171;45.550;12.074;2023-06-14T12:35:00;4.22;;;3.15;;
53285;SDS011;39171;45.550;12.074;2023-06-14T12:41:01;5.03;;;3.35;;
53285;SDS011;39171;45.550;12.074;2023-06-14T12:47:03;4.22;;;3.05;;
53285;SDS011;39171;45.550;12.074;2023-06-14T12:53:05;3.88;;;2.90;;
53285;SDS011;39171;45.550;12.074;2023-06-14T12:59:06;4.47;;;3.45;;
53285;SDS011;39171;45.550;12.074;2023-06-14T13:05:08;4.50;;;3.22;;
53285;SDS011;39171;45.550;12.074;2023-06-14T13:11:10;5.22;;;3.40;;
53285;SDS011;39171;45.550;12.074;2023-06-14T13:17:11;3.47;;;3.00;;
53285;SDS011;39171;45.550;12.074;2023-06-14T13:23:13;3.67;;;2.92;;
53285;SDS011;39171;45.550;12.074;2023-06-14T13:29:17;4.93;;;2.90;;
53285;SDS011;39171;45.550;12.074;2023-06-14T13:35:18;4.20;;;3.47;;
53285;SDS011;39171;45.550;12.074;2023-06-14T13:41:20;4.97;;;3.53;;
53285;SDS011;39171;45.550;12.074;2023-06-14T13:47:22;4.38;;;3.35;;
53285;SDS011;39171;45.550;12.074;2023-06-14T13:53:23;4.55;;;3.30;;
53285;SDS011;39171;45.550;12.074;2023-06-14T13:59:24;3.58;;;2.92;;
53285;SDS011;39171;45.550;12.074;2023-06-14T14:05:26;4.72;;;2.80;;
53285;SDS011;39171;45.550;12.074;2023-06-14T14:11:30;3.58;;;2.83;;
53285;SDS011;39171;45.550;12.074;2023-06-14T14:17:36;4.93;;;3.50;;
53285;SDS011;39171;45.550;12.074;2023-06-14T14:23:38;4.20;;;3.30;;
53285;SDS011;39171;45.550;12.074;2023-06-14T14:29:39;4.88;;;3.38;;
53285;SDS011;39171;45.550;12.074;2023-06-14T14:35:42;4.15;;;3.42;;
53285;SDS011;39171;45.550;12.074;2023-06-14T14:41:45;4.57;;;3.75;;
53285;SDS011;39171;45.550;12.074;2023-06-14T14:47:46;4.18;;;3.45;;
53285;SDS011;39171;45.550;12.074;2023-06-14T14:53:47;4.35;;;3.40;;
53285;SDS011;39171;45.550;12.074;2023-06-14T14:59:49;5.15;;;3.72;;
53285;SDS011;39171;45.550;12.074;2023-06-14T15:05:50;5.18;;;4.22;;
53285;SDS011;39171;45.550;12.074;2023-06-14T15:11:52;5.43;;;3.85;;
53285;SDS011;39171;45.550;12.074;2023-06-14T15:17:53;5.60;;;4.35;;
53285;SDS011;39171;45.550;12.074;2023-06-14T15:23:55;5.55;;;4.50;;
53285;SDS011;39171;45.550;12.074;2023-06-14T15:29:56;6.13;;;4.80;;
53285;SDS011;39171;45.550;12.074;2023-06-14T15:35:58;5.90;;;4.82;;
53285;SDS011;39171;45.550;12.074;2023-06-14T15:41:59;5.80;;;4.70;;
53285;SDS011;39171;45.550;12.074;2023-06-14T15:48:01;4.75;;;3.60;;
53285;SDS011;39171;45.550;12.074;2023-06-14T15:54:02;5.13;;;3.80;;
53285;SDS011;39171;45.550;12.074;2023-06-14T16:00:04;4.13;;;3.55;;
53285;SDS011;39171;45.550;12.074;2023-06-14T16:06:06;5.05;;;4.07;;
53285;SDS011;39171;45.550;12.074;2023-06-14T16:12:08;4.15;;;3.55;;
53285;SDS011;39171;45.550;12.074;2023-06-14T16:18:09;4.55;;;3.85;;
53285;SDS011;39171;45.550;12.074;2023-06-14T16:24:11;3.72;;;3.10;;
53285;SDS011;39171;45.550;12.074;2023-06-14T16:30:18;4.30;;;3.55;;
53285;SDS011;39171;45.550;12.074;2023-06-14T16:36:25;4.75;;;3.55;;
53285;SDS011;39171;45.550;12.074;2023-06-14T16:42:32;4.75;;;3.67;;
53285;SDS011;39171;45.550;12.074;2023-06-14T16:48:34;3.60;;;3.03;;
53285;SDS011;39171;45.550;12.074;2023-06-14T16:54:40;3.42;;;2.58;;
53285;SDS011;39171;45.550;12.074;2023-06-14T17:00:42;3.33;;;2.67;;
53285;SDS011;39171;45.550;12.074;2023-06-14T17:06:43;3.20;;;2.63;;
53285;SDS011;39171;45.550;12.074;2023-06-14T17:12:52;3.00;;;2.42;;
53285;SDS011;39171;45.550;12.074;2023-06-14T17:18:58;4.00;;;2.90;;
53285;SDS011;39171;45.550;12.074;2023-06-14T17:25:03;3.58;;;2.28;;
53285;SDS011;39171;45.550;12.074;2023-06-14T17:31:12;3.33;;;2.60;;
53285;SDS011;39171;45.550;12.074;2023-06-14T17:37:13;5.38;;;2.72;;
53285;SDS011;39171;45.550;12.074;2023-06-14T17:43:15;3.65;;;2.78;;
53285;SDS011;39171;45.550;12.074;2023-06-14T17:49:17;3.55;;;2.70;;
53285;SDS011;39171;45.550;12.074;2023-06-14T17:55:23;2.55;;;2.15;;
53285;SDS011;39171;45.550;12.074;2023-06-14T18:01:27;2.65;;;2.10;;
53285;SDS011;39171;45.550;12.074;2023-06-14T18:07:33;2.30;;;2.00;;
53285;SDS011;39171;45.550;12.074;2023-06-14T18:13:34;3.40;;;2.70;;
53285;SDS011;39171;45.550;12.074;2023-06-14T18:19:36;2.78;;;2.10;;
53285;SDS011;39171;45.550;12.074;2023-06-14T18:25:38;2.70;;;2.20;;
53285;SDS011;39171;45.550;12.074;2023-06-14T18:31:39;2.85;;;2.20;;
53285;SDS011;39171;45.550;12.074;2023-06-14T18:37:41;2.88;;;2.10;;
53285;SDS011;39171;45.550;12.074;2023-06-14T18:43:43;2.92;;;2.00;;
53285;SDS011;39171;45.550;12.074;2023-06-14T18:49:44;3.10;;;2.00;;
53285;SDS011;39171;45.550;12.074;2023-06-14T18:55:46;2.28;;;1.80;;
53285;SDS011;39171;45.550;12.074;2023-06-14T19:01:47;1.83;;;1.23;;
53285;SDS011;39171;45.550;12.074;2023-06-14T19:07:49;1.70;;;1.30;;
53285;SDS011;39171;45.550;12.074;2023-06-14T19:13:54;1.52;;;1.02;;
53285;SDS011;39171;45.550;12.074;2023-06-14T19:19:55;1.42;;;1.15;;
53285;SDS011;39171;45.550;12.074;2023-06-14T19:25:58;1.70;;;1.10;;
53285;SDS011;39171;45.550;12.074;2023-06-14T19:32:02;1.50;;;0.80;;
53285;SDS011;39171;45.550;12.074;2023-06-14T19:38:04;1.20;;;0.80;;
53285;SDS011;39171;45.550;12.074;2023-06-14T19:44:06;1.40;;;0.80;;
53285;SDS011;39171;45.550;12.074;2023-06-14T19:50:13;0.70;;;0.60;;
53285;SDS011;39171;45.550;12.074;2023-06-14T19:56:17;0.90;;;0.60;;
53285;SDS011;39171;45.550;12.074;2023-06-14T20:02:21;0.90;;;0.60;;
53285;SDS011;39171;45.550;12.074;2023-06-14T20:08:22;0.80;;;0.52;;
53285;SDS011;39171;45.550;12.074;2023-06-14T20:14:25;0.52;;;0.40;;
53285;SDS011;39171;45.550;12.074;2023-06-14T20:20:27;0.60;;;0.43;;
53285;SDS011;39171;45.550;12.074;2023-06-14T20:26:31;0.70;;;0.50;;
53285;SDS011;39171;45.550;12.074;2023-06-14T20:32:34;0.47;;;0.40;;
53285;SDS011;39171;45.550;12.074;2023-06-14T20:38:39;0.90;;;0.70;;
53285;SDS011;39171;45.550;12.074;2023-06-14T20:44:40;0.98;;;0.70;;
53285;SDS011;39171;45.550;12.074;2023-06-14T20:50:42;1.45;;;0.95;;
53285;SDS011;39171;45.550;12.074;2023-06-14T20:56:44;1.60;;;0.90;;
53285;SDS011;39171;45.550;12.074;2023-06-14T21:02:45;1.33;;;1.00;;
53285;SDS011;39171;45.550;12.074;2023-06-14T21:08:47;2.13;;;1.50;;
53285;SDS011;39171;45.550;12.074;2023-06-14T21:14:50;1.98;;;1.52;;
53285;SDS011;39171;45.550;12.074;2023-06-14T21:20:51;1.92;;;1.50;;
53285;SDS011;39171;45.550;12.074;2023-06-14T21:26:53;2.15;;;1.67;;
53285;SDS011;39171;45.550;12.074;2023-06-14T21:32:58;2.10;;;1.60;;
53285;SDS011;39171;45.550;12.074;2023-06-14T21:39:00;2.22;;;1.50;;
53285;SDS011;39171;45.550;12.074;2023-06-14T21:45:02;1.70;;;1.30;;
53285;SDS011;39171;45.550;12.074;2023-06-14T21:51:09;1.67;;;1.33;;
53285;SDS011;39171;45.550;12.074;2023-06-14T21:57:11;2.22;;;1.70;;
53285;SDS011;39171;45.550;12.074;2023-06-14T22:03:12;1.75;;;1.50;;
53285;SDS011;39171;45.550;12.074;2023-06-14T22:09:14;2.40;;;1.92;;
53285;SDS011;39171;45.550;12.074;2023-06-14T22:15:16;2.67;;;2.05;;
53285;SDS011;39171;45.550;12.074;2023-06-14T22:21:18;2.22;;;1.90;;
53285;SDS011;39171;45.550;12.074;2023-06-14T22:27:20;2.53;;;1.98;;
53285;SDS011;39171;45.550;12.074;2023-06-14T22:33:22;2.25;;;1.60;;
53285;SDS011;39171;45.550;12.074;2023-06-14T22:39:26;2.03;;;1.77;;
53285;SDS011;39171;45.550;12.074;2023-06-14T22:45:27;2.30;;;2.00;;
53285;SDS011;39171;45.550;12.074;2023-06-14T22:51:29;2.35;;;1.83;;
53285;SDS011;39171;45.550;12.074;2023-06-14T22:57:31;2.42;;;1.85;;
53285;SDS011;39171;45.550;12.074;2023-06-14T23:03:32;3.17;;;2.05;;
53285;SDS011;39171;45.550;12.074;2023-06-14T23:09:39;2.67;;;2.05;;
53285;SDS011;39171;45.550;12.074;2023-06-14T23:15:42;2.05;;;1.60;;
53285;SDS011;39171;45.550;12.074;2023-06-14T23:21:44;2.92;;;1.70;;
53285;SDS011;39171;45.550;12.074;2023-06-14T23:27:48;2.58;;;1.60;;
53285;SDS011;39171;45.550;12.074;2023-06-14T23:33:50;2.55;;;1.60;;
53285;SDS011;39171;45.550;12.074;2023-06-14T23:39:53;1.88;;;1.33;;
53285;SDS011;39171;45.550;12.074;2023-06-14T23:45:55;2.47;;;1.70;;
53285;SDS011;39171;45.550;12.074;2023-06-14T23:51:58;2.92;;;1.90;;
53285;SDS011;39171;45.550;12.074;2023-06-14T23:58:02;3.03;;;2.30;;
